sensor_id;sensor_type;location;lat;lon;timestamp;P1;durP1;ratioP1;P2;durP2;ratioP2
4317;SDS011;2172;53.576;9.934;2023-04-01T00:01:20;10.67;;;7.67;;
4317;SDS011;2172;53.576;9.934;2023-04-01T00:03:48;11.60;;;7.70;;
4317;SDS011;2172;53.576;9.934;2023-04-01T00:06:17;14.47;;;8.10;;
4317;SDS011;2172;53.576;9.934;2023-04-01T00:08:45;16.17;;;7.77;;
4317;SDS011;2172;53.576;9.934;2023-04-01T00:11:12;9.93;;;7.73;;
4317;SDS011;2172;53.576;9.934;2023-04-01T00:13:40;12.83;;;8.40;;
4317;SDS011;2172;53.576;9.934;2023-04-01T00:16:08;11.53;;;7.30;;
4317;SDS011;2172;53.576;9.934;2023-04-01T00:18:35;11.67;;;8.10;;
4317;SDS011;2172;53.576;9.934;2023-04-01T00:21:04;9.27;;;7.60;;
4317;SDS011;2172;53.576;9.934;2023-04-01T00:23:33;11.53;;;7.37;;
4317;SDS011;2172;53.576;9.934;2023-04-01T00:26:02;10.60;;;7.23;;
4317;SDS011;2172;53.576;9.934;2023-04-01T00:28:30;11.07;;;7.10;;
4317;SDS011;2172;53.576;9.934;2023-04-01T00:30:58;9.03;;;7.03;;
4317;SDS011;2172;53.576;9.934;2023-04-01T00:33:25;11.43;;;7.53;;
4317;SDS011;2172;53.576;9.934;2023-04-01T00:35:53;15.40;;;8.37;;
4317;SDS011;2172;53.576;9.934;2023-04-01T00:38:20;15.00;;;8.40;;
4317;SDS011;2172;53.576;9.934;2023-04-01T00:40:49;11.80;;;8.13;;
4317;SDS011;2172;53.576;9.934;2023-04-01T00:43:17;12.27;;;8.70;;
4317;SDS011;2172;53.576;9.934;2023-04-01T00:45:46;11.97;;;7.80;;
4317;SDS011;2172;53.576;9.934;2023-04-01T00:48:16;10.87;;;8.50;;
4317;SDS011;2172;53.576;9.934;2023-04-01T00:50:46;10.70;;;8.10;;
4317;SDS011;2172;53.576;9.934;2023-04-01T00:53:16;10.83;;;8.53;;
4317;SDS011;2172;53.576;9.934;2023-04-01T00:55:46;11.10;;;7.57;;
4317;SDS011;2172;53.576;9.934;2023-04-01T00:58:20;10.40;;;8.20;;
4317;SDS011;2172;53.576;9.934;2023-04-01T01:00:49;9.43;;;8.50;;
4317;SDS011;2172;53.576;9.934;2023-04-01T01:03:17;12.00;;;8.30;;
4317;SDS011;2172;53.576;9.934;2023-04-01T01:05:58;11.80;;;8.87;;
4317;SDS011;2172;53.576;9.934;2023-04-01T01:08:39;14.47;;;9.67;;
4317;SDS011;2172;53.576;9.934;2023-04-01T01:11:18;14.47;;;8.80;;
4317;SDS011;2172;53.576;9.934;2023-04-01T01:13:50;12.87;;;9.20;;
4317;SDS011;2172;53.576;9.934;2023-04-01T01:16:24;13.00;;;9.80;;
4317;SDS011;2172;53.576;9.934;2023-04-01T01:18:54;11.17;;;8.70;;
4317;SDS011;2172;53.576;9.934;2023-04-01T01:21:32;13.43;;;9.90;;
4317;SDS011;2172;53.576;9.934;2023-04-01T01:24:25;13.23;;;9.10;;
4317;SDS011;2172;53.576;9.934;2023-04-01T01:27:05;14.63;;;9.47;;
4317;SDS011;2172;53.576;9.934;2023-04-01T01:29:46;14.03;;;10.00;;
4317;SDS011;2172;53.576;9.934;2023-04-01T01:32:46;14.67;;;10.80;;
4317;SDS011;2172;53.576;9.934;2023-04-01T01:35:26;16.63;;;9.80;;
4317;SDS011;2172;53.576;9.934;2023-04-01T01:37:56;15.00;;;11.10;;
4317;SDS011;2172;53.576;9.934;2023-04-01T01:40:26;19.40;;;11.00;;
4317;SDS011;2172;53.576;9.934;2023-04-01T01:42:57;10.37;;;8.73;;
4317;SDS011;2172;53.576;9.934;2023-04-01T01:45:29;13.83;;;9.93;;
4317;SDS011;2172;53.576;9.934;2023-04-01T01:47:59;12.00;;;9.37;;
4317;SDS011;2172;53.576;9.934;2023-04-01T01:50:29;16.70;;;9.20;;
4317;SDS011;2172;53.576;9.934;2023-04-01T01:53:04;16.53;;;9.20;;
4317;SDS011;2172;53.576;9.934;2023-04-01T01:55:33;11.27;;;8.67;;
4317;SDS011;2172;53.576;9.934;2023-04-01T01:58:04;14.20;;;8.20;;
4317;SDS011;2172;53.576;9.934;2023-04-01T02:00:37;13.67;;;9.17;;
4317;SDS011;2172;53.576;9.934;2023-04-01T02:03:05;12.77;;;8.67;;
4317;SDS011;2172;53.576;9.934;2023-04-01T02:05:34;11.90;;;9.10;;
4317;SDS011;2172;53.576;9.934;2023-04-01T02:08:07;15.63;;;10.00;;
4317;SDS011;2172;53.576;9.934;2023-04-01T02:10:37;13.70;;;9.20;;
4317;SDS011;2172;53.576;9.934;2023-04-01T02:13:09;13.73;;;9.00;;
4317;SDS011;2172;53.576;9.934;2023-04-01T02:15:41;12.73;;;8.57;;
4317;SDS011;2172;53.576;9.934;2023-04-01T02:18:11;15.90;;;9.13;;
4317;SDS011;2172;53.576;9.934;2023-04-01T02:20:42;13.30;;;8.73;;
4317;SDS011;2172;53.576;9.934;2023-04-01T02:23:11;13.13;;;9.63;;
4317;SDS011;2172;53.576;9.934;2023-04-01T02:25:39;12.37;;;9.27;;
4317;SDS011;2172;53.576;9.934;2023-04-01T02:28:08;15.20;;;10.23;;
4317;SDS011;2172;53.576;9.934;2023-04-01T02:30:38;12.50;;;8.20;;
4317;SDS011;2172;53.576;9.934;2023-04-01T02:33:06;12.00;;;8.93;;
4317;SDS011;2172;53.576;9.934;2023-04-01T02:35:34;13.50;;;9.07;;
4317;SDS011;2172;53.576;9.934;2023-04-01T02:38:04;13.47;;;10.00;;
4317;SDS011;2172;53.576;9.934;2023-04-01T02:40:43;12.57;;;9.33;;
4317;SDS011;2172;53.576;9.934;2023-04-01T02:43:12;15.03;;;9.00;;
4317;SDS011;2172;53.576;9.934;2023-04-01T02:45:41;18.07;;;9.30;;
4317;SDS011;2172;53.576;9.934;2023-04-01T02:48:09;15.87;;;9.60;;
4317;SDS011;2172;53.576;9.934;2023-04-01T02:50:37;11.33;;;9.27;;
4317;SDS011;2172;53.576;9.934;2023-04-01T02:53:06;12.03;;;9.43;;
4317;SDS011;2172;53.576;9.934;2023-04-01T02:55:34;13.47;;;9.70;;
4317;SDS011;2172;53.576;9.934;2023-04-01T02:58:02;14.97;;;8.80;;
4317;SDS011;2172;53.576;9.934;2023-04-01T03:00:30;11.33;;;9.03;;
4317;SDS011;2172;53.576;9.934;2023-04-01T03:02:58;11.30;;;9.07;;
4317;SDS011;2172;53.576;9.934;2023-04-01T03:05:25;9.57;;;8.57;;
4317;SDS011;2172;53.576;9.934;2023-04-01T03:07:53;14.50;;;9.27;;
4317;SDS011;2172;53.576;9.934;2023-04-01T03:10:23;13.13;;;8.93;;
4317;SDS011;2172;53.576;9.934;2023-04-01T03:12:51;11.37;;;9.13;;
4317;SDS011;2172;53.576;9.934;2023-04-01T03:15:18;13.30;;;9.20;;
4317;SDS011;2172;53.576;9.934;2023-04-01T03:17:46;10.43;;;8.30;;
4317;SDS011;2172;53.576;9.934;2023-04-01T03:20:13;12.47;;;8.93;;
4317;SDS011;2172;53.576;9.934;2023-04-01T03:22:41;13.23;;;10.30;;
4317;SDS011;2172;53.576;9.934;2023-04-01T03:25:09;16.03;;;10.10;;
4317;SDS011;2172;53.576;9.934;2023-04-01T03:27:38;15.00;;;10.50;;
4317;SDS011;2172;53.576;9.934;2023-04-01T03:30:08;13.67;;;10.00;;
4317;SDS011;2172;53.576;9.934;2023-04-01T03:32:43;15.43;;;10.63;;
4317;SDS011;2172;53.576;9.934;2023-04-01T03:35:11;15.80;;;11.37;;
4317;SDS011;2172;53.576;9.934;2023-04-01T03:37:39;17.13;;;12.03;;
4317;SDS011;2172;53.576;9.934;2023-04-01T03:40:07;17.63;;;14.07;;
4317;SDS011;2172;53.576;9.934;2023-04-01T03:42:35;18.10;;;12.90;;
4317;SDS011;2172;53.576;9.934;2023-04-01T03:45:06;14.50;;;12.10;;
4317;SDS011;2172;53.576;9.934;2023-04-01T03:47:34;18.13;;;12.93;;
4317;SDS011;2172;53.576;9.934;2023-04-01T03:50:02;14.13;;;10.80;;
4317;SDS011;2172;53.576;9.934;2023-04-01T03:52:30;19.37;;;11.23;;
4317;SDS011;2172;53.576;9.934;2023-04-01T03:54:58;14.60;;;10.50;;
4317;SDS011;2172;53.576;9.934;2023-04-01T03:57:26;14.30;;;11.13;;
4317;SDS011;2172;53.576;9.934;2023-04-01T03:59:58;14.57;;;10.00;;
4317;SDS011;2172;53.576;9.934;2023-04-01T04:02:27;10.73;;;9.63;;
4317;SDS011;2172;53.576;9.934;2023-04-01T04:04:55;15.57;;;10.83;;
4317;SDS011;2172;53.576;9.934;2023-04-01T04:07:23;14.53;;;10.80;;
4317;SDS011;2172;53.576;9.934;2023-04-01T04:10:03;11.80;;;9.97;;
4317;SDS011;2172;53.576;9.934;2023-04-01T04:12:32;13.53;;;9.57;;
4317;SDS011;2172;53.576;9.934;2023-04-01T04:14:59;11.77;;;8.70;;
4317;SDS011;2172;53.576;9.934;2023-04-01T04:17:28;11.23;;;8.90;;
4317;SDS011;2172;53.576;9.934;2023-04-01T04:19:56;13.00;;;9.97;;
4317;SDS011;2172;53.576;9.934;2023-04-01T04:22:23;13.10;;;8.80;;
4317;SDS011;2172;53.576;9.934;2023-04-01T04:24:51;12.80;;;8.83;;
4317;SDS011;2172;53.576;9.934;2023-04-01T04:27:19;14.20;;;9.87;;
4317;SDS011;2172;53.576;9.934;2023-04-01T04:29:55;11.73;;;8.77;;
4317;SDS011;2172;53.576;9.934;2023-04-01T04:32:24;13.60;;;9.50;;
4317;SDS011;2172;53.576;9.934;2023-04-01T04:34:53;13.77;;;9.00;;
4317;SDS011;2172;53.576;9.934;2023-04-01T04:37:20;18.87;;;10.67;;
4317;SDS011;2172;53.576;9.934;2023-04-01T04:39:48;14.57;;;10.30;;
4317;SDS011;2172;53.576;9.934;2023-04-01T04:42:15;10.33;;;9.03;;
4317;SDS011;2172;53.576;9.934;2023-04-01T04:44:44;16.67;;;10.00;;
4317;SDS011;2172;53.576;9.934;2023-04-01T04:47:11;15.53;;;10.70;;
4317;SDS011;2172;53.576;9.934;2023-04-01T04:49:39;15.70;;;10.10;;
4317;SDS011;2172;53.576;9.934;2023-04-01T04:52:10;16.03;;;9.90;;
4317;SDS011;2172;53.576;9.934;2023-04-01T04:54:37;15.03;;;9.50;;
4317;SDS011;2172;53.576;9.934;2023-04-01T04:57:05;13.03;;;9.97;;
4317;SDS011;2172;53.576;9.934;2023-04-01T04:59:40;15.27;;;10.00;;
4317;SDS011;2172;53.576;9.934;2023-04-01T05:02:15;14.10;;;9.33;;
4317;SDS011;2172;53.576;9.934;2023-04-01T05:04:43;14.67;;;10.17;;
4317;SDS011;2172;53.576;9.934;2023-04-01T05:07:12;11.80;;;9.10;;
4317;SDS011;2172;53.576;9.934;2023-04-01T05:09:40;15.97;;;10.17;;
4317;SDS011;2172;53.576;9.934;2023-04-01T05:12:08;12.70;;;10.30;;
4317;SDS011;2172;53.576;9.934;2023-04-01T05:15:07;12.87;;;9.70;;
4317;SDS011;2172;53.576;9.934;2023-04-01T05:17:36;12.90;;;9.90;;
4317;SDS011;2172;53.576;9.934;2023-04-01T05:20:05;11.80;;;9.63;;
4317;SDS011;2172;53.576;9.934;2023-04-01T05:22:35;14.30;;;9.30;;
4317;SDS011;2172;53.576;9.934;2023-04-01T05:25:03;24.20;;;10.67;;
4317;SDS011;2172;53.576;9.934;2023-04-01T05:27:31;13.40;;;9.40;;
4317;SDS011;2172;53.576;9.934;2023-04-01T05:29:59;13.20;;;10.50;;
4317;SDS011;2172;53.576;9.934;2023-04-01T05:32:41;13.40;;;9.27;;
4317;SDS011;2172;53.576;9.934;2023-04-01T05:35:10;10.23;;;8.10;;
4317;SDS011;2172;53.576;9.934;2023-04-01T05:37:39;4.77;;;4.27;;
4317;SDS011;2172;53.576;9.934;2023-04-01T05:40:08;5.80;;;4.10;;
4317;SDS011;2172;53.576;9.934;2023-04-01T05:42:36;2.40;;;2.13;;
4317;SDS011;2172;53.576;9.934;2023-04-01T05:45:05;1.77;;;1.47;;
4317;SDS011;2172;53.576;9.934;2023-04-01T05:48:00;2.40;;;1.50;;
4317;SDS011;2172;53.576;9.934;2023-04-01T05:50:31;2.00;;;1.43;;
4317;SDS011;2172;53.576;9.934;2023-04-01T05:53:00;2.40;;;1.83;;
4317;SDS011;2172;53.576;9.934;2023-04-01T05:55:28;2.93;;;1.10;;
4317;SDS011;2172;53.576;9.934;2023-04-01T05:57:56;1.53;;;1.27;;
4317;SDS011;2172;53.576;9.934;2023-04-01T06:00:26;1.80;;;1.00;;
4317;SDS011;2172;53.576;9.934;2023-04-01T06:02:54;1.53;;;1.30;;
4317;SDS011;2172;53.576;9.934;2023-04-01T06:05:25;8.50;;;4.60;;
4317;SDS011;2172;53.576;9.934;2023-04-01T06:07:55;1.83;;;1.70;;
4317;SDS011;2172;53.576;9.934;2023-04-01T06:10:35;1.93;;;1.73;;
4317;SDS011;2172;53.576;9.934;2023-04-01T06:13:12;2.80;;;1.73;;
4317;SDS011;2172;53.576;9.934;2023-04-01T06:15:48;2.10;;;1.90;;
4317;SDS011;2172;53.576;9.934;2023-04-01T06:18:33;4.03;;;3.73;;
4317;SDS011;2172;53.576;9.934;2023-04-01T06:21:12;2.23;;;2.03;;
4317;SDS011;2172;53.576;9.934;2023-04-01T06:23:59;2.20;;;2.00;;
4317;SDS011;2172;53.576;9.934;2023-04-01T06:26:41;2.67;;;2.00;;
4317;SDS011;2172;53.576;9.934;2023-04-01T06:29:19;2.60;;;2.20;;
4317;SDS011;2172;53.576;9.934;2023-04-01T06:32:10;2.40;;;1.87;;
4317;SDS011;2172;53.576;9.934;2023-04-01T06:34:58;2.10;;;1.83;;
4317;SDS011;2172;53.576;9.934;2023-04-01T06:37:45;2.23;;;1.73;;
4317;SDS011;2172;53.576;9.934;2023-04-01T06:43:45;1.70;;;1.60;;
4317;SDS011;2172;53.576;9.934;2023-04-01T06:46:40;2.10;;;1.20;;
4317;SDS011;2172;53.576;9.934;2023-04-01T06:49:33;1.60;;;1.37;;
4317;SDS011;2172;53.576;9.934;2023-04-01T06:52:26;1.80;;;1.50;;
4317;SDS011;2172;53.576;9.934;2023-04-01T06:55:30;1.60;;;1.30;;
4317;SDS011;2172;53.576;9.934;2023-04-01T06:58:29;2.00;;;1.30;;
4317;SDS011;2172;53.576;9.934;2023-04-01T07:01:02;1.80;;;1.60;;
4317;SDS011;2172;53.576;9.934;2023-04-01T07:03:32;2.40;;;1.60;;
4317;SDS011;2172;53.576;9.934;2023-04-01T07:06:05;1.70;;;1.50;;
4317;SDS011;2172;53.576;9.934;2023-04-01T07:08:40;1.60;;;1.37;;
4317;SDS011;2172;53.576;9.934;2023-04-01T07:11:10;3.77;;;1.40;;
4317;SDS011;2172;53.576;9.934;2023-04-01T07:14:01;1.30;;;1.10;;
4317;SDS011;2172;53.576;9.934;2023-04-01T07:16:32;3.30;;;1.30;;
4317;SDS011;2172;53.576;9.934;2023-04-01T07:19:04;1.97;;;1.13;;
4317;SDS011;2172;53.576;9.934;2023-04-01T07:21:59;2.23;;;1.20;;
4317;SDS011;2172;53.576;9.934;2023-04-01T07:24:56;1.47;;;1.20;;
4317;SDS011;2172;53.576;9.934;2023-04-01T07:27:26;1.83;;;1.40;;
4317;SDS011;2172;53.576;9.934;2023-04-01T07:29:55;1.77;;;1.30;;
4317;SDS011;2172;53.576;9.934;2023-04-01T07:32:29;1.60;;;1.00;;
4317;SDS011;2172;53.576;9.934;2023-04-01T07:35:04;1.70;;;1.50;;
4317;SDS011;2172;53.576;9.934;2023-04-01T07:37:38;2.13;;;1.00;;
4317;SDS011;2172;53.576;9.934;2023-04-01T07:40:14;1.67;;;1.40;;
4317;SDS011;2172;53.576;9.934;2023-04-01T07:42:50;1.40;;;1.00;;
4317;SDS011;2172;53.576;9.934;2023-04-01T07:45:26;1.50;;;1.40;;
4317;SDS011;2172;53.576;9.934;2023-04-01T07:48:06;1.47;;;1.37;;
4317;SDS011;2172;53.576;9.934;2023-04-01T07:50:41;1.57;;;1.10;;
4317;SDS011;2172;53.576;9.934;2023-04-01T07:53:13;2.60;;;1.83;;
4317;SDS011;2172;53.576;9.934;2023-04-01T07:55:49;1.93;;;1.63;;
4317;SDS011;2172;53.576;9.934;2023-04-01T07:58:22;1.80;;;1.33;;
4317;SDS011;2172;53.576;9.934;2023-04-01T08:00:57;2.13;;;1.47;;
4317;SDS011;2172;53.576;9.934;2023-04-01T08:03:42;2.30;;;1.60;;
4317;SDS011;2172;53.576;9.934;2023-04-01T08:06:19;1.70;;;1.20;;
4317;SDS011;2172;53.576;9.934;2023-04-01T08:08:56;1.80;;;1.03;;
4317;SDS011;2172;53.576;9.934;2023-04-01T08:12:12;1.70;;;1.27;;
4317;SDS011;2172;53.576;9.934;2023-04-01T08:15:18;1.53;;;0.97;;
4317;SDS011;2172;53.576;9.934;2023-04-01T08:18:06;1.50;;;1.10;;
4317;SDS011;2172;53.576;9.934;2023-04-01T08:20:41;2.23;;;1.00;;
4317;SDS011;2172;53.576;9.934;2023-04-01T08:23:13;1.63;;;1.10;;
4317;SDS011;2172;53.576;9.934;2023-04-01T08:25:44;2.20;;;0.70;;
4317;SDS011;2172;53.576;9.934;2023-04-01T08:28:16;2.27;;;1.53;;
4317;SDS011;2172;53.576;9.934;2023-04-01T08:30:47;1.40;;;0.80;;
4317;SDS011;2172;53.576;9.934;2023-04-01T08:33:19;1.30;;;0.90;;
4317;SDS011;2172;53.576;9.934;2023-04-01T08:35:56;1.63;;;1.10;;
4317;SDS011;2172;53.576;9.934;2023-04-01T08:38:27;2.40;;;0.80;;
4317;SDS011;2172;53.576;9.934;2023-04-01T08:40:58;2.20;;;0.73;;
4317;SDS011;2172;53.576;9.934;2023-04-01T08:43:54;1.67;;;1.40;;
4317;SDS011;2172;53.576;9.934;2023-04-01T08:46:54;2.53;;;1.20;;
4317;SDS011;2172;53.576;9.934;2023-04-01T08:49:44;1.37;;;0.97;;
4317;SDS011;2172;53.576;9.934;2023-04-01T08:52:49;1.77;;;1.00;;
4317;SDS011;2172;53.576;9.934;2023-04-01T08:55:25;1.90;;;1.07;;
4317;SDS011;2172;53.576;9.934;2023-04-01T08:58:17;2.27;;;1.03;;
4317;SDS011;2172;53.576;9.934;2023-04-01T09:01:34;1.60;;;1.10;;
4317;SDS011;2172;53.576;9.934;2023-04-01T09:04:57;2.00;;;1.10;;
4317;SDS011;2172;53.576;9.934;2023-04-01T09:07:51;3.20;;;1.30;;
4317;SDS011;2172;53.576;9.934;2023-04-01T09:10:44;1.50;;;1.03;;
4317;SDS011;2172;53.576;9.934;2023-04-01T09:16:58;1.50;;;1.20;;
4317;SDS011;2172;53.576;9.934;2023-04-01T09:19:57;1.83;;;1.20;;
4317;SDS011;2172;53.576;9.934;2023-04-01T09:22:45;1.93;;;1.40;;
4317;SDS011;2172;53.576;9.934;2023-04-01T09:28:30;2.13;;;1.03;;
4317;SDS011;2172;53.576;9.934;2023-04-01T09:31:08;2.60;;;1.43;;
4317;SDS011;2172;53.576;9.934;2023-04-01T09:37:15;3.10;;;1.10;;
4317;SDS011;2172;53.576;9.934;2023-04-01T09:40:00;3.23;;;1.70;;
4317;SDS011;2172;53.576;9.934;2023-04-01T09:42:45;1.90;;;1.00;;
4317;SDS011;2172;53.576;9.934;2023-04-01T09:45:35;2.90;;;1.70;;
4317;SDS011;2172;53.576;9.934;2023-04-01T09:48:18;1.40;;;1.00;;
4317;SDS011;2172;53.576;9.934;2023-04-01T09:50:56;1.33;;;0.93;;
4317;SDS011;2172;53.576;9.934;2023-04-01T09:53:36;1.60;;;1.10;;
4317;SDS011;2172;53.576;9.934;2023-04-01T10:00:01;2.67;;;1.83;;
4317;SDS011;2172;53.576;9.934;2023-04-01T10:09:23;2.03;;;1.50;;
4317;SDS011;2172;53.576;9.934;2023-04-01T10:12:18;1.60;;;1.03;;
4317;SDS011;2172;53.576;9.934;2023-04-01T10:15:08;2.03;;;1.83;;
4317;SDS011;2172;53.576;9.934;2023-04-01T10:17:57;1.93;;;1.40;;
4317;SDS011;2172;53.576;9.934;2023-04-01T10:20:45;1.70;;;1.03;;
4317;SDS011;2172;53.576;9.934;2023-04-01T10:23:54;1.53;;;0.87;;
4317;SDS011;2172;53.576;9.934;2023-04-01T10:26:50;1.23;;;1.00;;
4317;SDS011;2172;53.576;9.934;2023-04-01T10:30:02;1.50;;;1.00;;
4317;SDS011;2172;53.576;9.934;2023-04-01T10:42:34;2.30;;;1.10;;
4317;SDS011;2172;53.576;9.934;2023-04-01T10:49:02;2.17;;;1.07;;
4317;SDS011;2172;53.576;9.934;2023-04-01T10:51:52;1.63;;;1.00;;
4317;SDS011;2172;53.576;9.934;2023-04-01T10:58:50;1.43;;;1.10;;
4317;SDS011;2172;53.576;9.934;2023-04-01T11:11:34;1.10;;;0.80;;
4317;SDS011;2172;53.576;9.934;2023-04-01T11:14:30;1.50;;;0.93;;
4317;SDS011;2172;53.576;9.934;2023-04-01T11:17:27;1.67;;;1.20;;
4317;SDS011;2172;53.576;9.934;2023-04-01T11:20:22;1.60;;;1.00;;
4317;SDS011;2172;53.576;9.934;2023-04-01T11:23:28;2.80;;;1.50;;
4317;SDS011;2172;53.576;9.934;2023-04-01T11:26:33;3.13;;;1.77;;
4317;SDS011;2172;53.576;9.934;2023-04-01T11:29:38;1.60;;;1.50;;
4317;SDS011;2172;53.576;9.934;2023-04-01T11:32:22;1.63;;;1.30;;
4317;SDS011;2172;53.576;9.934;2023-04-01T11:35:16;2.60;;;2.00;;
4317;SDS011;2172;53.576;9.934;2023-04-01T11:38:17;3.50;;;1.50;;
4317;SDS011;2172;53.576;9.934;2023-04-01T11:41:23;2.83;;;2.60;;
4317;SDS011;2172;53.576;9.934;2023-04-01T11:44:22;3.50;;;3.20;;
4317;SDS011;2172;53.576;9.934;2023-04-01T11:47:09;2.87;;;2.47;;
4317;SDS011;2172;53.576;9.934;2023-04-01T11:49:59;2.90;;;2.20;;
4317;SDS011;2172;53.576;9.934;2023-04-01T11:55:43;4.23;;;2.50;;
4317;SDS011;2172;53.576;9.934;2023-04-01T11:58:31;2.93;;;2.30;;
4317;SDS011;2172;53.576;9.934;2023-04-01T12:04:23;3.83;;;2.87;;
4317;SDS011;2172;53.576;9.934;2023-04-01T12:07:15;3.37;;;3.00;;
4317;SDS011;2172;53.576;9.934;2023-04-01T12:09:48;3.63;;;3.07;;
4317;SDS011;2172;53.576;9.934;2023-04-01T12:12:22;4.40;;;3.17;;
4317;SDS011;2172;53.576;9.934;2023-04-01T12:14:59;5.83;;;3.20;;
4317;SDS011;2172;53.576;9.934;2023-04-01T12:17:35;4.40;;;3.00;;
4317;SDS011;2172;53.576;9.934;2023-04-01T12:20:20;4.10;;;2.90;;
4317;SDS011;2172;53.576;9.934;2023-04-01T12:22:54;9.00;;;4.10;;
4317;SDS011;2172;53.576;9.934;2023-04-01T12:25:38;7.10;;;4.60;;
4317;SDS011;2172;53.576;9.934;2023-04-01T12:28:18;5.17;;;4.30;;
4317;SDS011;2172;53.576;9.934;2023-04-01T12:30:51;5.00;;;4.00;;
4317;SDS011;2172;53.576;9.934;2023-04-01T12:33:27;6.17;;;4.90;;
4317;SDS011;2172;53.576;9.934;2023-04-01T12:36:20;6.33;;;4.73;;
4317;SDS011;2172;53.576;9.934;2023-04-01T12:41:51;4.20;;;3.80;;
4317;SDS011;2172;53.576;9.934;2023-04-01T12:44:33;7.30;;;4.53;;
4317;SDS011;2172;53.576;9.934;2023-04-01T12:47:13;6.80;;;4.80;;
4317;SDS011;2172;53.576;9.934;2023-04-01T12:50:03;5.37;;;4.53;;
4317;SDS011;2172;53.576;9.934;2023-04-01T12:52:45;4.20;;;3.73;;
4317;SDS011;2172;53.576;9.934;2023-04-01T12:58:36;7.23;;;4.77;;
4317;SDS011;2172;53.576;9.934;2023-04-01T13:04:15;4.77;;;4.33;;
4317;SDS011;2172;53.576;9.934;2023-04-01T13:07:01;7.13;;;4.20;;
4317;SDS011;2172;53.576;9.934;2023-04-01T13:09:55;5.50;;;4.20;;
4317;SDS011;2172;53.576;9.934;2023-04-01T13:12:40;5.70;;;4.80;;
4317;SDS011;2172;53.576;9.934;2023-04-01T13:15:22;6.30;;;4.90;;
4317;SDS011;2172;53.576;9.934;2023-04-01T13:17:53;4.80;;;4.03;;
4317;SDS011;2172;53.576;9.934;2023-04-01T13:20:28;4.80;;;3.60;;
4317;SDS011;2172;53.576;9.934;2023-04-01T13:23:07;7.00;;;4.90;;
4317;SDS011;2172;53.576;9.934;2023-04-01T13:25:43;6.93;;;4.10;;
4317;SDS011;2172;53.576;9.934;2023-04-01T13:28:18;5.70;;;3.60;;
4317;SDS011;2172;53.576;9.934;2023-04-01T13:30:48;6.60;;;4.90;;
4317;SDS011;2172;53.576;9.934;2023-04-01T13:33:21;5.80;;;3.77;;
4317;SDS011;2172;53.576;9.934;2023-04-01T13:35:57;3.33;;;2.60;;
4317;SDS011;2172;53.576;9.934;2023-04-01T13:38:42;4.43;;;2.50;;
4317;SDS011;2172;53.576;9.934;2023-04-01T13:41:29;4.70;;;3.50;;
4317;SDS011;2172;53.576;9.934;2023-04-01T13:44:06;7.80;;;2.37;;
4317;SDS011;2172;53.576;9.934;2023-04-01T13:52:40;4.47;;;3.53;;
4317;SDS011;2172;53.576;9.934;2023-04-01T13:58:19;7.60;;;4.27;;
4317;SDS011;2172;53.576;9.934;2023-04-01T14:00:53;7.40;;;5.33;;
4317;SDS011;2172;53.576;9.934;2023-04-01T14:03:30;4.33;;;3.53;;
4317;SDS011;2172;53.576;9.934;2023-04-01T14:06:06;9.00;;;3.30;;
4317;SDS011;2172;53.576;9.934;2023-04-01T14:11:45;4.73;;;4.17;;
4317;SDS011;2172;53.576;9.934;2023-04-01T14:14:21;6.33;;;4.77;;
4317;SDS011;2172;53.576;9.934;2023-04-01T14:17:01;4.67;;;4.00;;
4317;SDS011;2172;53.576;9.934;2023-04-01T14:19:44;6.10;;;4.97;;
4317;SDS011;2172;53.576;9.934;2023-04-01T14:22:32;5.77;;;4.47;;
4317;SDS011;2172;53.576;9.934;2023-04-01T14:25:14;6.50;;;4.90;;
4317;SDS011;2172;53.576;9.934;2023-04-01T14:28:08;8.17;;;5.10;;
4317;SDS011;2172;53.576;9.934;2023-04-01T14:30:42;7.50;;;5.93;;
4317;SDS011;2172;53.576;9.934;2023-04-01T14:33:19;7.90;;;6.13;;
4317;SDS011;2172;53.576;9.934;2023-04-01T14:35:56;7.63;;;5.40;;
4317;SDS011;2172;53.576;9.934;2023-04-01T14:38:51;13.90;;;5.97;;
4317;SDS011;2172;53.576;9.934;2023-04-01T14:41:25;6.87;;;5.07;;
4317;SDS011;2172;53.576;9.934;2023-04-01T14:44:05;9.97;;;5.20;;
4317;SDS011;2172;53.576;9.934;2023-04-01T14:47:11;6.83;;;5.90;;
4317;SDS011;2172;53.576;9.934;2023-04-01T14:49:56;8.10;;;5.33;;
4317;SDS011;2172;53.576;9.934;2023-04-01T14:52:32;11.57;;;5.60;;
4317;SDS011;2172;53.576;9.934;2023-04-01T14:55:02;8.10;;;4.80;;
4317;SDS011;2172;53.576;9.934;2023-04-01T14:57:52;9.00;;;6.23;;
4317;SDS011;2172;53.576;9.934;2023-04-01T15:00:26;8.00;;;5.77;;
4317;SDS011;2172;53.576;9.934;2023-04-01T15:02:57;8.43;;;6.63;;
4317;SDS011;2172;53.576;9.934;2023-04-01T15:05:32;9.87;;;6.90;;
4317;SDS011;2172;53.576;9.934;2023-04-01T15:08:08;9.30;;;7.43;;
4317;SDS011;2172;53.576;9.934;2023-04-01T15:14:15;11.67;;;5.83;;
4317;SDS011;2172;53.576;9.934;2023-04-01T15:16:50;10.30;;;7.13;;
4317;SDS011;2172;53.576;9.934;2023-04-01T15:19:27;8.27;;;5.27;;
4317;SDS011;2172;53.576;9.934;2023-04-01T15:22:15;10.47;;;6.30;;
4317;SDS011;2172;53.576;9.934;2023-04-01T15:24:58;10.73;;;6.53;;
4317;SDS011;2172;53.576;9.934;2023-04-01T15:27:42;7.50;;;6.70;;
4317;SDS011;2172;53.576;9.934;2023-04-01T15:30:28;8.33;;;6.40;;
4317;SDS011;2172;53.576;9.934;2023-04-01T15:33:01;8.23;;;7.03;;
4317;SDS011;2172;53.576;9.934;2023-04-01T15:35:42;9.63;;;7.10;;
4317;SDS011;2172;53.576;9.934;2023-04-01T15:38:16;9.63;;;6.80;;
4317;SDS011;2172;53.576;9.934;2023-04-01T15:40:53;11.37;;;7.37;;
4317;SDS011;2172;53.576;9.934;2023-04-01T15:43:28;12.13;;;7.70;;
4317;SDS011;2172;53.576;9.934;2023-04-01T15:46:09;14.47;;;8.60;;
4317;SDS011;2172;53.576;9.934;2023-04-01T15:48:58;12.60;;;7.10;;
4317;SDS011;2172;53.576;9.934;2023-04-01T15:51:37;12.17;;;8.27;;
4317;SDS011;2172;53.576;9.934;2023-04-01T15:54:26;10.23;;;7.40;;
4317;SDS011;2172;53.576;9.934;2023-04-01T15:57:03;11.30;;;7.50;;
4317;SDS011;2172;53.576;9.934;2023-04-01T16:02:53;18.00;;;9.40;;
4317;SDS011;2172;53.576;9.934;2023-04-01T16:05:39;12.60;;;8.10;;
4317;SDS011;2172;53.576;9.934;2023-04-01T16:08:21;11.60;;;8.10;;
4317;SDS011;2172;53.576;9.934;2023-04-01T16:11:08;15.07;;;7.20;;
4317;SDS011;2172;53.576;9.934;2023-04-01T16:13:43;13.53;;;8.70;;
4317;SDS011;2172;53.576;9.934;2023-04-01T16:16:19;17.67;;;8.20;;
4317;SDS011;2172;53.576;9.934;2023-04-01T16:18:56;13.70;;;7.93;;
4317;SDS011;2172;53.576;9.934;2023-04-01T16:21:42;9.93;;;8.03;;
4317;SDS011;2172;53.576;9.934;2023-04-01T16:24:17;12.17;;;7.10;;
4317;SDS011;2172;53.576;9.934;2023-04-01T16:26:50;11.60;;;8.10;;
4317;SDS011;2172;53.576;9.934;2023-04-01T16:29:21;10.23;;;6.70;;
4317;SDS011;2172;53.576;9.934;2023-04-01T16:31:55;15.47;;;8.20;;
4317;SDS011;2172;53.576;9.934;2023-04-01T16:34:30;11.73;;;7.93;;
4317;SDS011;2172;53.576;9.934;2023-04-01T16:37:04;9.23;;;8.07;;
4317;SDS011;2172;53.576;9.934;2023-04-01T16:39:41;10.30;;;8.00;;
4317;SDS011;2172;53.576;9.934;2023-04-01T16:42:15;12.13;;;7.83;;
4317;SDS011;2172;53.576;9.934;2023-04-01T16:44:53;11.77;;;7.70;;
4317;SDS011;2172;53.576;9.934;2023-04-01T16:47:23;10.43;;;7.17;;
4317;SDS011;2172;53.576;9.934;2023-04-01T16:49:57;8.10;;;5.57;;
4317;SDS011;2172;53.576;9.934;2023-04-01T16:52:34;18.43;;;8.17;;
4317;SDS011;2172;53.576;9.934;2023-04-01T16:55:14;10.27;;;7.90;;
4317;SDS011;2172;53.576;9.934;2023-04-01T16:57:45;11.97;;;7.63;;
4317;SDS011;2172;53.576;9.934;2023-04-01T17:00:16;19.00;;;9.23;;
4317;SDS011;2172;53.576;9.934;2023-04-01T17:02:57;11.60;;;8.67;;
4317;SDS011;2172;53.576;9.934;2023-04-01T17:05:36;12.23;;;6.07;;
4317;SDS011;2172;53.576;9.934;2023-04-01T17:08:08;11.97;;;6.80;;
4317;SDS011;2172;53.576;9.934;2023-04-01T17:10:46;10.70;;;6.93;;
4317;SDS011;2172;53.576;9.934;2023-04-01T17:13:20;13.77;;;8.20;;
4317;SDS011;2172;53.576;9.934;2023-04-01T17:16:00;10.90;;;7.50;;
4317;SDS011;2172;53.576;9.934;2023-04-01T17:18:48;9.10;;;5.80;;
4317;SDS011;2172;53.576;9.934;2023-04-01T17:21:20;9.80;;;7.23;;
4317;SDS011;2172;53.576;9.934;2023-04-01T17:23:52;11.50;;;6.63;;
4317;SDS011;2172;53.576;9.934;2023-04-01T17:26:28;10.13;;;6.93;;
4317;SDS011;2172;53.576;9.934;2023-04-01T17:29:02;11.50;;;6.50;;
4317;SDS011;2172;53.576;9.934;2023-04-01T17:31:38;13.13;;;6.53;;
4317;SDS011;2172;53.576;9.934;2023-04-01T17:37:01;9.93;;;6.20;;
4317;SDS011;2172;53.576;9.934;2023-04-01T17:39:48;7.43;;;4.43;;